Time;durP1;ratioP1;P1;durP2;ratioP2;P2;SDS_P1;SDS_P2;PMS_P1;PMS_P2;Temp;Humidity;BMP_temperature;BMP_pressure;BME280_temperature;BME280_humidity;BME280_pressure;Samples;Min_cycle;Max_cycle;Signal;HPM_P1;HPM_P2
2023/12/27 00:00:35;;;;;;;12.93;9.03;;;5.20;99.90;;;;;;5073204;28;20263;-66
2023/12/27 00:03:01;;;;;;;15.50;8.10;;;5.20;99.90;;;;;;5073016;28;20201;-66
2023/12/27 00:05:27;;;;;;;13.33;7.73;;;5.30;99.90;;;;;;5073296;28;20185;-66
2023/12/27 00:07:53;;;;;;;12.43;7.60;;;5.30;99.90;;;;;;5073170;28;20682;-66
2023/12/27 00:10:19;;;;;;;15.13;7.47;;;5.30;99.90;;;;;;5073225;28;20201;-66
2023/12/27 00:12:45;;;;;;;12.07;7.43;;;5.20;99.90;;;;;;5055115;28;20220;-68
2023/12/27 00:15:11;;;;;;;12.60;6.90;;;5.20;99.90;;;;;;5073042;28;20213;-67
2023/12/27 00:17:37;;;;;;;16.87;7.50;;;5.10;99.90;;;;;;5072923;28;20232;-66
2023/12/27 00:20:03;;;;;;;15.60;7.67;;;5.10;99.90;;;;;;5055009;28;20209;-66
2023/12/27 00:22:29;;;;;;;11.90;7.60;;;5.10;99.90;;;;;;5054872;28;20716;-66
2023/12/27 00:24:55;;;;;;;13.53;7.53;;;5.10;99.90;;;;;;5073048;28;20185;-66
2023/12/27 00:27:20;;;;;;;15.10;7.77;;;5.10;99.90;;;;;;5055084;28;20182;-66
2023/12/27 00:29:46;;;;;;;10.80;6.40;;;5.20;99.90;;;;;;5054985;28;20287;-66
2023/12/27 00:32:12;;;;;;;11.23;6.73;;;5.20;99.90;;;;;;5072943;28;20187;-66
2023/12/27 00:34:38;;;;;;;11.83;7.37;;;5.10;99.90;;;;;;5074605;28;20181;-66
2023/12/27 00:37:04;;;;;;;8.83;6.97;;;5.10;99.90;;;;;;5059063;28;20193;-66
2023/12/27 00:39:30;;;;;;;8.70;7.27;;;5.10;99.90;;;;;;5058995;28;20255;-66
2023/12/27 00:41:56;;;;;;;10.73;7.17;;;5.20;99.90;;;;;;5058928;28;20213;-66
2023/12/27 00:44:22;;;;;;;12.07;7.47;;;5.10;99.90;;;;;;5076828;28;20177;-66
2023/12/27 00:46:48;;;;;;;13.30;7.90;;;5.10;99.90;;;;;;5076594;28;20170;-66
2023/12/27 00:49:15;;;;;;;22.07;8.43;;;5.10;99.90;;;;;;5076950;28;20239;-66
2023/12/27 00:51:41;;;;;;;13.23;7.83;;;5.10;99.90;;;;;;5076727;28;20174;-66
2023/12/27 00:54:06;;;;;;;11.10;7.10;;;4.90;99.90;;;;;;5076590;28;20223;-66
2023/12/27 00:56:32;;;;;;;12.30;7.67;;;4.80;99.90;;;;;;5076614;28;20243;-66
2023/12/27 00:58:59;;;;;;;11.57;6.73;;;4.80;99.90;;;;;;5076788;28;20174;-65
2023/12/27 01:01:25;;;;;;;11.47;6.73;;;4.80;99.90;;;;;;5076439;28;20198;-66
2023/12/27 01:03:51;;;;;;;11.77;7.30;;;4.90;99.90;;;;;;5058501;28;20216;-66
2023/12/27 01:06:17;;;;;;;10.63;7.47;;;4.90;99.90;;;;;;5076291;28;20194;-66
2023/12/27 01:08:42;;;;;;;9.53;6.90;;;4.90;99.90;;;;;;5076366;28;20591;-66
2023/12/27 01:11:08;;;;;;;13.77;7.63;;;4.90;99.90;;;;;;5076210;28;20194;-66
2023/12/27 01:13:34;;;;;;;10.00;7.10;;;4.90;99.90;;;;;;5058248;28;20193;-66
2023/12/27 01:16:00;;;;;;;12.73;7.27;;;4.90;99.90;;;;;;5076485;28;20182;-66
2023/12/27 01:18:26;;;;;;;14.57;7.70;;;4.80;99.90;;;;;;5075942;28;20170;-66
2023/12/27 01:20:52;;;;;;;13.87;7.10;;;4.80;99.90;;;;;;5076051;28;20743;-66
2023/12/27 01:23:18;;;;;;;13.13;7.87;;;4.70;99.90;;;;;;5076014;28;20208;-66
2023/12/27 01:25:43;;;;;;;8.83;7.37;;;4.70;99.90;;;;;;5076344;28;20174;-66
2023/12/27 01:28:09;;;;;;;10.47;6.73;;;4.70;99.90;;;;;;5076014;28;20173;-66
2023/12/27 01:30:35;;;;;;;17.03;7.83;;;4.70;99.90;;;;;;5076412;28;20189;-66
2023/12/27 01:33:01;;;;;;;11.73;7.60;;;4.60;99.90;;;;;;5075960;28;20224;-66
2023/12/27 01:35:27;;;;;;;11.20;7.00;;;4.60;99.90;;;;;;5076425;28;20566;-66
2023/12/27 01:37:53;;;;;;;14.30;7.07;;;4.60;99.90;;;;;;5076122;28;20180;-66
2023/12/27 01:40:19;;;;;;;14.67;7.27;;;4.60;99.90;;;;;;5075762;28;20273;-66
2023/12/27 01:42:45;;;;;;;12.83;8.07;;;4.60;99.90;;;;;;5057677;28;20206;-66
2023/12/27 01:45:11;;;;;;;16.20;7.67;;;4.50;99.90;;;;;;5057560;28;20189;-66
2023/12/27 01:47:37;;;;;;;9.30;7.43;;;4.50;99.90;;;;;;5075357;28;20265;-66
2023/12/27 01:50:10;;;;;;;10.53;7.47;;;4.40;99.90;;;;;;5075555;28;20697;-66
2023/12/27 01:52:38;;;;;;;14.20;7.23;;;4.50;99.90;;;;;;5076167;28;20162;-66
2023/12/27 01:55:04;;;;;;;10.60;7.77;;;4.40;99.90;;;;;;5075756;28;20178;-65
2023/12/27 01:57:30;;;;;;;11.43;7.37;;;4.30;99.90;;;;;;5075499;28;20186;-66
2023/12/27 01:59:56;;;;;;;12.50;8.00;;;4.20;99.90;;;;;;5061781;28;20240;-65
2023/12/27 02:02:23;;;;;;;10.13;7.27;;;4.20;99.90;;;;;;5076583;28;20202;-66
2023/12/27 02:04:48;;;;;;;12.60;7.70;;;4.20;99.90;;;;;;5075764;28;20591;-66
2023/12/27 02:07:15;;;;;;;10.27;7.63;;;4.20;99.90;;;;;;5075211;28;20190;-66
2023/12/27 02:09:41;;;;;;;11.57;7.93;;;4.10;99.90;;;;;;5075113;28;20201;-66
2023/12/27 02:12:07;;;;;;;13.23;7.77;;;4.00;99.90;;;;;;5075039;28;20185;-66
2023/12/27 02:14:33;;;;;;;16.30;7.73;;;4.00;99.90;;;;;;5057005;28;20196;-66
2023/12/27 02:17:00;;;;;;;12.53;7.33;;;3.90;99.90;;;;;;5075123;28;20170;-66
2023/12/27 02:19:28;;;;;;;12.40;7.40;;;3.90;99.90;;;;;;5075013;28;20578;-66
2023/12/27 02:21:54;;;;;;;11.60;7.60;;;4.00;99.90;;;;;;5074949;28;20173;-66
2023/12/27 02:24:22;;;;;;;10.17;7.47;;;3.80;99.90;;;;;;5074978;28;20182;-66
2023/12/27 02:26:48;;;;;;;15.93;8.47;;;3.70;99.90;;;;;;5074858;28;20654;-66
2023/12/27 02:29:14;;;;;;;11.50;7.87;;;3.80;99.90;;;;;;5056855;28;20251;-66
2023/12/27 02:31:40;;;;;;;14.77;8.17;;;3.60;99.90;;;;;;5074891;28;20173;-66
2023/12/27 02:34:06;;;;;;;16.63;8.20;;;3.60;99.90;;;;;;5074510;28;20719;-66
2023/12/27 02:36:32;;;;;;;14.97;7.87;;;3.60;99.90;;;;;;5056834;28;20261;-66
2023/12/27 02:38:58;;;;;;;10.30;7.87;;;3.60;99.90;;;;;;5056699;28;20186;-66
2023/12/27 02:41:24;;;;;;;13.07;7.67;;;3.50;99.90;;;;;;5056534;28;20693;-66
2023/12/27 02:43:49;;;;;;;11.80;7.90;;;3.50;99.90;;;;;;5056361;28;20210;-66
2023/12/27 02:46:15;;;;;;;16.27;8.40;;;3.40;99.90;;;;;;5056615;28;20184;-66
2023/12/27 02:48:41;;;;;;;12.80;8.30;;;3.50;99.90;;;;;;5074181;28;20177;-66
2023/12/27 02:51:07;;;;;;;13.17;8.10;;;3.50;99.90;;;;;;5074414;28;20186;-66
2023/12/27 02:53:32;;;;;;;10.87;7.77;;;3.60;99.90;;;;;;5056437;28;20565;-66
2023/12/27 02:55:58;;;;;;;12.20;8.20;;;3.70;99.90;;;;;;5056346;28;20193;-66
2023/12/27 02:58:24;;;;;;;11.80;8.33;;;3.70;99.90;;;;;;5073643;28;20182;-66
2023/12/27 03:00:50;;;;;;;21.17;8.43;;;3.60;99.90;;;;;;5074745;28;20200;-66
2023/12/27 03:03:16;;;;;;;14.97;8.83;;;3.50;99.90;;;;;;5073864;28;20221;-66
2023/12/27 03:05:41;;;;;;;14.27;9.10;;;3.50;99.90;;;;;;5074117;28;20685;-66
2023/12/27 03:08:07;;;;;;;13.23;8.03;;;3.60;99.90;;;;;;5056055;28;20697;-66
2023/12/27 03:10:33;;;;;;;13.43;7.80;;;3.60;99.90;;;;;;5056014;28;20712;-66
2023/12/27 03:12:59;;;;;;;14.67;8.90;;;3.60;99.90;;;;;;5074258;28;20162;-66
2023/12/27 03:15:25;;;;;;;12.43;8.77;;;3.60;99.90;;;;;;5073869;28;20259;-66
2023/12/27 03:17:50;;;;;;;14.90;8.13;;;3.50;99.90;;;;;;5055668;28;20192;-66
2023/12/27 03:20:16;;;;;;;10.17;7.90;;;3.50;99.90;;;;;;5073693;28;20686;-66
2023/12/27 03:22:42;;;;;;;13.47;8.17;;;3.50;99.90;;;;;;5055611;28;20659;-66
2023/12/27 03:25:08;;;;;;;10.00;8.67;;;3.50;99.90;;;;;;5073803;28;20268;-66
2023/12/27 03:27:34;;;;;;;12.50;9.60;;;3.40;99.90;;;;;;5073823;28;20162;-66
2023/12/27 03:29:59;;;;;;;13.10;9.03;;;3.40;99.90;;;;;;5055740;28;20206;-66
2023/12/27 03:32:25;;;;;;;16.17;9.13;;;3.40;99.90;;;;;;5073496;28;20182;-66
2023/12/27 03:34:51;;;;;;;15.13;8.70;;;3.40;99.90;;;;;;5073642;28;20243;-65
2023/12/27 03:37:17;;;;;;;11.57;8.77;;;3.40;99.90;;;;;;5055624;28;20230;-66
2023/12/27 03:39:43;;;;;;;13.60;9.43;;;3.50;99.90;;;;;;5073508;28;20682;-66
2023/12/27 03:42:10;;;;;;;14.03;9.03;;;3.50;99.90;;;;;;5073448;28;20289;-66
2023/12/27 03:44:36;;;;;;;16.70;9.40;;;3.50;99.90;;;;;;5073459;28;20219;-66
2023/12/27 03:47:02;;;;;;;15.87;9.00;;;3.50;99.90;;;;;;5073721;28;20211;-66
2023/12/27 03:49:28;;;;;;;13.83;10.17;;;3.50;99.90;;;;;;5055417;28;20205;-65
2023/12/27 03:51:53;;;;;;;13.90;8.87;;;3.50;99.90;;;;;;5073386;28;20173;-66
2023/12/27 03:54:19;;;;;;;16.07;10.10;;;3.50;99.90;;;;;;5073607;28;20170;-66
2023/12/27 03:56:45;;;;;;;13.13;9.13;;;3.40;99.90;;;;;;5073772;28;20660;-66
2023/12/27 03:59:11;;;;;;;10.37;9.00;;;3.40;99.90;;;;;;5055435;28;20224;-66
2023/12/27 04:01:37;;;;;;;15.60;9.57;;;3.40;99.90;;;;;;5073248;28;20186;-66
2023/12/27 04:04:03;;;;;;;19.13;9.73;;;3.40;99.90;;;;;;5072951;28;20216;-66
2023/12/27 04:06:29;;;;;;;13.33;8.53;;;3.40;99.90;;;;;;5072991;28;20250;-66
2023/12/27 04:08:54;;;;;;;10.73;8.73;;;3.40;99.90;;;;;;5072273;28;20178;-66
2023/12/27 04:11:20;;;;;;;12.47;9.50;;;3.40;99.90;;;;;;5073018;28;20212;-66
2023/12/27 04:13:46;;;;;;;12.27;9.00;;;3.40;99.90;;;;;;5072928;28;20193;-66
2023/12/27 04:16:12;;;;;;;13.97;8.90;;;3.30;99.90;;;;;;5055106;28;20213;-66
2023/12/27 04:18:38;;;;;;;13.20;8.50;;;3.30;99.90;;;;;;5072861;28;20216;-66
2023/12/27 04:21:04;;;;;;;10.83;8.20;;;3.30;99.90;;;;;;5073052;28;20202;-66
2023/12/27 04:23:30;;;;;;;12.57;10.07;;;3.30;99.90;;;;;;5055093;28;20220;-66
2023/12/27 04:25:56;;;;;;;14.50;9.03;;;3.30;99.90;;;;;;5072994;28;20181;-66
2023/12/27 04:28:22;;;;;;;12.33;9.20;;;3.30;99.90;;;;;;5073307;28;20205;-66
2023/12/27 04:30:48;;;;;;;14.53;10.33;;;3.20;99.90;;;;;;5072883;28;20200;-66
2023/12/27 04:33:14;;;;;;;19.10;9.90;;;3.20;99.90;;;;;;5072714;28;20549;-66
2023/12/27 04:35:40;;;;;;;14.60;9.83;;;3.00;99.90;;;;;;5073487;28;20260;-66
2023/12/27 04:38:06;;;;;;;17.83;10.30;;;3.10;99.90;;;;;;5072919;28;20201;-66
2023/12/27 04:40:32;;;;;;;16.50;10.17;;;3.10;99.90;;;;;;5072929;28;20198;-66
2023/12/27 04:42:59;;;;;;;15.70;10.03;;;3.10;99.90;;;;;;5071504;28;20674;-66
2023/12/27 04:45:25;;;;;;;17.20;9.70;;;3.10;99.90;;;;;;5072804;28;20668;-66
2023/12/27 04:47:51;;;;;;;16.43;9.83;;;3.10;99.90;;;;;;5072486;28;20666;-66
2023/12/27 04:50:17;;;;;;;11.90;8.93;;;3.10;99.90;;;;;;5072809;28;20198;-66
2023/12/27 04:52:43;;;;;;;10.83;9.33;;;3.00;99.90;;;;;;5072725;28;20245;-66
2023/12/27 04:55:09;;;;;;;12.00;10.60;;;3.00;99.90;;;;;;5073200;28;20587;-65
2023/12/27 04:57:36;;;;;;;13.53;9.63;;;3.00;99.90;;;;;;5072770;28;20261;-66
2023/12/27 05:00:03;;;;;;;13.33;9.13;;;3.10;99.90;;;;;;5073240;28;20197;-66
2023/12/27 05:02:29;;;;;;;15.60;9.80;;;3.10;99.90;;;;;;5073420;28;20233;-66
2023/12/27 05:04:55;;;;;;;13.20;8.73;;;3.10;99.90;;;;;;5073478;28;20189;-65
2023/12/27 05:07:21;;;;;;;14.73;9.70;;;3.10;99.90;;;;;;5073263;28;20701;-66
2023/12/27 05:09:47;;;;;;;15.13;9.90;;;3.10;99.90;;;;;;5054666;28;20216;-66
2023/12/27 05:12:13;;;;;;;17.77;10.57;;;3.20;99.90;;;;;;5054588;28;20244;-65
2023/12/27 05:14:38;;;;;;;14.73;9.67;;;3.20;99.90;;;;;;5054480;28;20190;-66
2023/12/27 05:17:04;;;;;;;17.00;10.17;;;3.30;99.90;;;;;;5072633;28;20178;-66
2023/12/27 05:19:30;;;;;;;14.73;9.27;;;3.30;99.90;;;;;;5072293;28;20205;-66
2023/12/27 05:21:55;;;;;;;12.87;9.97;;;3.20;99.90;;;;;;5075716;28;20690;-66
2023/12/27 05:24:21;;;;;;;12.87;9.50;;;3.20;99.90;;;;;;5076096;28;20201;-66
2023/12/27 05:26:47;;;;;;;17.87;10.30;;;3.30;99.90;;;;;;5076414;28;20299;-66
2023/12/27 05:29:13;;;;;;;13.30;9.47;;;3.30;99.90;;;;;;5076214;28;20174;-66
2023/12/27 05:31:39;;;;;;;14.33;10.07;;;3.30;99.90;;;;;;5076536;28;20275;-66
2023/12/27 05:34:04;;;;;;;16.30;11.17;;;3.10;99.90;;;;;;5076024;28;20178;-66
2023/12/27 05:36:30;;;;;;;15.50;9.93;;;3.10;99.90;;;;;;5076432;28;20187;-66
2023/12/27 05:38:56;;;;;;;17.97;11.50;;;3.20;99.90;;;;;;5076038;28;20209;-66
2023/12/27 05:41:24;;;;;;;15.70;10.60;;;3.20;99.90;;;;;;5075865;28;20205;-66
2023/12/27 05:43:51;;;;;;;14.57;9.60;;;3.30;99.90;;;;;;5057902;28;20209;-66
2023/12/27 05:46:16;;;;;;;17.43;11.40;;;3.30;99.90;;;;;;5057863;28;20189;-65
2023/12/27 05:48:42;;;;;;;19.83;11.20;;;3.40;99.90;;;;;;5075538;28;20184;-66
2023/12/27 05:51:08;;;;;;;20.63;12.07;;;3.40;99.90;;;;;;5057724;28;20285;-66
2023/12/27 05:53:34;;;;;;;17.30;11.53;;;3.40;99.90;;;;;;5075866;28;20178;-66
2023/12/27 05:55:59;;;;;;;15.77;12.33;;;3.30;99.90;;;;;;5058105;28;20269;-66
2023/12/27 05:58:26;;;;;;;17.70;11.77;;;3.40;99.90;;;;;;5057716;28;20197;-66
2023/12/27 06:00:52;;;;;;;19.57;11.90;;;3.40;99.90;;;;;;5075498;28;20202;-66
2023/12/27 06:03:17;;;;;;;20.07;11.43;;;3.40;99.90;;;;;;5075379;28;20555;-66
2023/12/27 06:05:43;;;;;;;21.40;12.43;;;3.40;99.90;;;;;;5075613;28;20178;-66
2023/12/27 06:08:09;;;;;;;20.53;12.23;;;3.40;99.90;;;;;;5075367;28;20686;-66
2023/12/27 06:10:36;;;;;;;25.20;13.10;;;3.50;99.90;;;;;;5075355;28;20561;-66
2023/12/27 06:13:02;;;;;;;24.23;13.67;;;3.50;99.90;;;;;;5075635;28;20209;-65
2023/12/27 06:15:28;;;;;;;29.37;14.47;;;3.50;99.90;;;;;;5075306;28;20243;-66
2023/12/27 06:17:54;;;;;;;24.73;14.97;;;3.50;99.90;;;;;;5074901;28;20174;-66
2023/12/27 06:20:20;;;;;;;28.97;15.13;;;3.60;99.90;;;;;;5057086;28;20355;-66
2023/12/27 06:22:46;;;;;;;27.20;15.67;;;3.60;99.90;;;;;;5075065;28;20212;-66
2023/12/27 06:25:12;;;;;;;19.43;14.90;;;3.60;99.90;;;;;;5075161;28;20272;-66
2023/12/27 06:27:40;;;;;;;20.80;14.37;;;3.70;99.90;;;;;;5075666;28;20235;-66
2023/12/27 06:30:08;;;;;;;28.17;15.87;;;3.70;99.90;;;;;;5075006;28;20189;-66
2023/12/27 06:32:33;;;;;;;20.30;13.47;;;3.70;99.90;;;;;;5073715;28;20167;-66
2023/12/27 06:34:59;;;;;;;26.07;15.63;;;3.80;99.90;;;;;;5056996;28;20197;-66
2023/12/27 06:37:25;;;;;;;29.17;15.17;;;3.80;99.90;;;;;;5075232;28;20209;-65
2023/12/27 06:39:51;;;;;;;24.63;14.40;;;3.80;99.90;;;;;;5074976;28;20198;-66
2023/12/27 06:42:16;;;;;;;25.10;15.63;;;3.80;99.90;;;;;;5075049;28;20217;-66
2023/12/27 06:44:42;;;;;;;26.00;15.73;;;3.80;99.90;;;;;;5056712;28;20192;-66
2023/12/27 06:47:08;;;;;;;26.87;15.17;;;3.80;99.90;;;;;;5074959;28;20549;-66
2023/12/27 06:49:34;;;;;;;24.90;14.03;;;3.80;99.90;;;;;;5074282;28;20277;-66
2023/12/27 06:51:59;;;;;;;30.37;14.87;;;3.70;99.90;;;;;;5056518;28;20273;-65
2023/12/27 06:54:25;;;;;;;26.50;14.20;;;3.70;99.90;;;;;;5056553;28;20185;-66
2023/12/27 06:56:51;;;;;;;27.37;14.37;;;3.70;99.90;;;;;;5074789;28;20174;-66
2023/12/27 06:59:17;;;;;;;23.43;14.30;;;3.70;99.90;;;;;;5074357;28;20590;-65
2023/12/27 07:01:43;;;;;;;25.67;14.77;;;3.70;99.90;;;;;;5074558;28;20670;-66
2023/12/27 07:04:09;;;;;;;24.43;14.10;;;3.70;99.90;;;;;;5056062;28;20213;-66
2023/12/27 07:06:35;;;;;;;26.37;15.40;;;3.80;99.90;;;;;;5056160;28;20190;-66
2023/12/27 07:09:02;;;;;;;23.20;14.63;;;3.80;99.90;;;;;;5074496;28;20194;-66
2023/12/27 07:11:28;;;;;;;25.53;15.10;;;3.80;99.90;;;;;;5074252;28;20758;-66
2023/12/27 07:13:54;;;;;;;22.20;15.03;;;3.80;99.90;;;;;;5074374;28;20268;-65
2023/12/27 07:16:20;;;;;;;23.87;14.57;;;3.80;99.90;;;;;;5074148;28;20162;-65
2023/12/27 07:18:46;;;;;;;26.70;15.00;;;3.80;99.90;;;;;;5074142;28;20666;-65
2023/12/27 07:21:12;;;;;;;23.33;15.10;;;3.80;99.90;;;;;;5073965;28;20238;-65
2023/12/27 07:23:39;;;;;;;22.80;15.53;;;3.80;99.90;;;;;;5055915;28;20211;-65
2023/12/27 07:26:05;;;;;;;22.17;15.37;;;3.80;99.90;;;;;;5074400;28;20174;-65
2023/12/27 07:28:31;;;;;;;21.77;15.23;;;3.90;99.90;;;;;;5073990;28;20235;-65
2023/12/27 07:30:58;;;;;;;26.67;15.53;;;3.90;99.90;;;;;;5074073;28;20288;-65
2023/12/27 07:33:25;;;;;;;23.07;13.80;;;3.90;99.90;;;;;;5055671;28;20185;-65
2023/12/27 07:35:51;;;;;;;20.77;13.90;;;4.00;99.90;;;;;;5074140;28;20237;-65
2023/12/27 07:38:18;;;;;;;24.40;13.90;;;4.00;99.90;;;;;;5056051;28;20262;-65
2023/12/27 07:40:44;;;;;;;26.60;14.20;;;4.00;99.90;;;;;;5055661;28;20263;-65
2023/12/27 07:43:10;;;;;;;25.70;15.47;;;4.10;99.90;;;;;;5073306;28;20740;-65
2023/12/27 07:45:37;;;;;;;32.33;16.73;;;4.10;99.90;;;;;;5073660;28;20186;-66
2023/12/27 07:48:03;;;;;;;29.27;15.33;;;4.10;99.90;;;;;;5073789;28;20166;-66
2023/12/27 07:50:30;;;;;;;28.87;15.50;;;4.20;99.90;;;;;;5074754;28;20202;-66
2023/12/27 07:52:56;;;;;;;28.40;14.93;;;4.20;99.90;;;;;;5056704;28;20200;-66
2023/12/27 07:55:22;;;;;;;28.97;13.90;;;4.30;99.90;;;;;;5073630;28;20581;-66
2023/12/27 07:57:48;;;;;;;25.60;14.53;;;4.30;99.90;;;;;;5055590;28;20276;-65
2023/12/27 08:00:18;;;;;;;25.33;14.37;;;4.30;99.90;;;;;;5055474;28;20580;-65
2023/12/27 08:02:46;;;;;;;24.57;14.77;;;4.40;99.90;;;;;;5073274;28;20201;-66
2023/12/27 08:05:11;;;;;;;18.70;12.47;;;4.40;99.90;;;;;;5055448;28;20173;-65
2023/12/27 08:07:38;;;;;;;18.00;13.20;;;4.40;99.90;;;;;;5073335;28;20251;-66
2023/12/27 08:10:06;;;;;;;24.47;13.50;;;4.40;99.90;;;;;;5073234;28;20200;-65
2023/12/27 08:12:32;;;;;;;23.10;13.33;;;4.50;99.90;;;;;;5055174;28;20187;-66
2023/12/27 08:14:58;;;;;;;26.97;13.97;;;4.50;99.90;;;;;;5073257;28;20181;-66
2023/12/27 08:17:23;;;;;;;25.33;15.33;;;4.50;99.90;;;;;;5073409;28;20170;-66
2023/12/27 08:19:49;;;;;;;21.13;13.73;;;4.60;99.90;;;;;;5072848;28;20206;-66
2023/12/27 08:22:15;;;;;;;31.80;16.13;;;4.60;99.90;;;;;;5073024;28;20314;-66
2023/12/27 08:24:40;;;;;;;34.63;16.13;;;4.60;99.90;;;;;;5073529;28;20213;-66
2023/12/27 08:27:06;;;;;;;25.27;14.63;;;4.70;99.90;;;;;;5072994;28;20181;-66
2023/12/27 08:29:32;;;;;;;28.53;15.27;;;4.70;99.90;;;;;;5072923;28;20204;-66
2023/12/27 08:31:58;;;;;;;29.40;13.97;;;4.80;99.90;;;;;;5073195;28;20178;-66
2023/12/27 08:34:23;;;;;;;17.43;12.83;;;4.80;99.90;;;;;;5072965;28;20174;-66
2023/12/27 08:36:49;;;;;;;22.37;12.73;;;4.80;99.90;;;;;;5054933;28;20178;-66
2023/12/27 08:39:15;;;;;;;18.93;9.23;;;4.90;99.90;;;;;;5073050;28;20185;-66
2023/12/27 08:41:41;;;;;;;12.27;9.23;;;5.10;99.90;;;;;;5054868;28;20193;-66
2023/12/27 08:44:07;;;;;;;18.27;8.50;;;5.60;99.90;;;;;;5072688;28;20206;-65
2023/12/27 08:46:33;;;;;;;18.17;8.20;;;5.80;99.90;;;;;;5072785;28;20261;-66
2023/12/27 08:48:59;;;;;;;9.10;7.27;;;6.10;99.90;;;;;;5054446;28;20206;-65
2023/12/27 08:51:25;;;;;;;10.77;7.70;;;6.20;99.90;;;;;;5054585;28;20252;-66
2023/12/27 08:53:51;;;;;;;11.27;7.70;;;6.20;99.90;;;;;;5054584;28;20243;-68
2023/12/27 08:56:17;;;;;;;12.97;7.90;;;6.30;99.90;;;;;;5075088;28;20173;-67
2023/12/27 08:58:43;;;;;;;15.30;7.93;;;6.30;99.90;;;;;;5076608;28;20182;-67
2023/12/27 09:01:09;;;;;;;8.63;7.67;;;6.40;99.90;;;;;;5058573;28;20213;-66
2023/12/27 09:03:35;;;;;;;10.23;7.50;;;6.40;99.90;;;;;;5076311;28;20578;-67
2023/12/27 09:06:01;;;;;;;10.90;7.40;;;6.40;99.90;;;;;;5058269;28;20182;-67
2023/12/27 09:08:26;;;;;;;12.43;7.33;;;6.60;99.90;;;;;;5058620;28;20197;-66
2023/12/27 09:10:52;;;;;;;12.63;7.47;;;6.70;99.90;;;;;;5076399;28;20198;-66
2023/12/27 09:13:18;;;;;;;12.50;8.53;;;6.60;99.90;;;;;;5076639;28;20542;-66
2023/12/27 09:15:44;;;;;;;11.87;7.50;;;6.70;99.90;;;;;;5058656;28;20554;-66
2023/12/27 09:18:09;;;;;;;12.20;8.13;;;6.80;99.90;;;;;;5076440;28;20257;-67
2023/12/27 09:20:35;;;;;;;9.63;7.27;;;6.80;99.90;;;;;;5076269;28;20205;-66
2023/12/27 09:23:01;;;;;;;12.70;7.73;;;6.90;99.90;;;;;;5076067;28;20213;-66
2023/12/27 09:25:27;;;;;;;13.33;7.27;;;6.90;99.90;;;;;;5058092;28;20189;-66
2023/12/27 09:27:53;;;;;;;14.77;7.57;;;6.90;99.90;;;;;;5076064;28;20194;-66
2023/12/27 09:30:18;;;;;;;14.17;7.90;;;7.00;99.90;;;;;;5076006;28;20753;-66
2023/12/27 09:32:44;;;;;;;9.57;7.70;;;7.00;99.90;;;;;;5076412;28;20249;-67
2023/12/27 09:35:10;;;;;;;12.70;7.90;;;7.00;99.90;;;;;;5057803;28;20193;-66
2023/12/27 09:37:37;;;;;;;12.70;7.07;;;7.00;99.90;;;;;;5074502;28;20666;-67
2023/12/27 09:40:03;;;;;;;8.93;6.90;;;7.00;99.90;;;;;;5073994;28;20193;-66
2023/12/27 09:42:32;;;;;;;7.87;6.93;;;7.00;99.90;;;;;;5074081;28;20263;-66
2023/12/27 09:45:00;;;;;;;10.20;6.87;;;7.10;99.90;;;;;;5074350;28;20170;-66
2023/12/27 09:47:29;;;;;;;9.20;6.63;;;7.30;99.90;;;;;;5056351;28;20555;-66
2023/12/27 09:49:56;;;;;;;8.97;6.50;;;7.40;99.90;;;;;;5057568;28;20730;-66
2023/12/27 09:52:23;;;;;;;6.70;6.10;;;7.40;99.90;;;;;;5075787;28;20181;-67
2023/12/27 09:54:50;;;;;;;10.70;6.47;;;7.40;99.90;;;;;;5075690;28;20376;-66
2023/12/27 09:57:16;;;;;;;10.47;6.43;;;7.40;99.90;;;;;;5076094;28;20162;-67
2023/12/27 09:59:45;;;;;;;8.63;6.43;;;7.50;99.90;;;;;;5075541;28;20201;-67
2023/12/27 10:02:17;;;;;;;6.47;5.83;;;7.50;99.90;;;;;;5075537;28;20173;-67
2023/12/27 10:04:49;;;;;;;7.73;5.90;;;7.70;99.90;;;;;;5057401;28;20190;-66
2023/12/27 10:07:17;;;;;;;13.63;6.67;;;7.70;99.90;;;;;;5056198;28;20201;-67
2023/12/27 10:09:43;;;;;;;7.97;6.30;;;7.70;99.90;;;;;;5075895;28;20204;-67
2023/12/27 10:12:09;;;;;;;8.00;5.93;;;7.80;99.90;;;;;;5075554;28;20657;-67
2023/12/27 10:14:37;;;;;;;7.50;5.50;;;7.80;99.90;;;;;;5075255;28;20553;-67
2023/12/27 10:17:03;;;;;;;6.67;5.90;;;7.90;99.90;;;;;;5075605;28;20239;-67
2023/12/27 10:19:38;;;;;;;6.60;5.40;;;7.90;99.90;;;;;;5074838;28;20277;-67
2023/12/27 10:22:04;;;;;;;8.33;5.17;;;7.90;99.90;;;;;;5057103;28;20182;-67
2023/12/27 10:24:30;;;;;;;6.40;5.10;;;7.80;99.90;;;;;;5075167;28;20181;-67
2023/12/27 10:26:59;;;;;;;5.80;5.20;;;7.90;99.90;;;;;;5057144;28;20188;-66
2023/12/27 10:29:24;;;;;;;6.47;5.13;;;7.80;99.90;;;;;;5074832;28;20206;-67
2023/12/27 10:31:50;;;;;;;5.20;4.80;;;7.80;99.90;;;;;;5057114;28;20174;-67
2023/12/27 10:34:18;;;;;;;6.10;5.00;;;7.90;99.90;;;;;;5074832;28;20190;-67
2023/12/27 10:36:44;;;;;;;5.00;4.70;;;7.90;99.90;;;;;;5056915;28;20178;-67
2023/12/27 10:39:09;;;;;;;5.67;4.60;;;7.90;99.90;;;;;;5075305;28;20235;-67
2023/12/27 10:41:37;;;;;;;5.27;4.87;;;7.90;99.90;;;;;;5075139;28;20652;-67
2023/12/27 10:44:04;;;;;;;5.27;4.70;;;7.90;99.90;;;;;;5056796;28;20210;-67
2023/12/27 10:46:34;;;;;;;4.80;4.40;;;7.90;99.90;;;;;;5075178;28;20177;-65
2023/12/27 10:49:03;;;;;;;4.70;4.30;;;8.10;99.90;;;;;;5057228;28;20181;-67
2023/12/27 10:51:30;;;;;;;5.20;4.53;;;8.10;99.90;;;;;;5075079;28;20194;-66
2023/12/27 10:54:00;;;;;;;5.03;4.63;;;8.20;99.90;;;;;;5056903;28;20289;-66
2023/12/27 10:56:26;;;;;;;4.53;4.20;;;8.20;99.90;;;;;;5074770;28;20722;-66
2023/12/27 10:58:53;;;;;;;5.43;4.93;;;8.20;99.90;;;;;;5056538;28;20273;-66
2023/12/27 11:01:20;;;;;;;5.13;4.73;;;8.20;99.90;;;;;;5074406;28;20674;-66
2023/12/27 11:03:47;;;;;;;4.90;4.50;;;8.20;99.90;;;;;;5056297;28;20271;-66
2023/12/27 11:06:16;;;;;;;5.47;4.97;;;8.20;99.90;;;;;;5074148;28;20174;-66
2023/12/27 11:08:46;;;;;;;5.50;5.10;;;8.20;99.90;;;;;;5074255;28;20247;-66
2023/12/27 11:11:13;;;;;;;5.73;5.23;;;8.30;99.90;;;;;;5074519;28;20301;-66
2023/12/27 11:13:40;;;;;;;5.67;5.17;;;8.20;99.90;;;;;;5074117;28;20602;-67
2023/12/27 11:16:10;;;;;;;5.83;5.10;;;8.20;99.90;;;;;;5074410;28;20158;-67
2023/12/27 11:18:37;;;;;;;5.80;5.20;;;8.20;99.90;;;;;;5073320;28;20535;-64
2023/12/27 11:21:03;;;;;;;6.30;5.80;;;8.20;99.90;;;;;;5073926;28;20237;-66
2023/12/27 11:23:28;;;;;;;5.70;5.23;;;8.20;99.90;;;;;;5074107;28;20240;-66
2023/12/27 11:25:56;;;;;;;6.03;5.53;;;8.20;99.90;;;;;;5074436;28;20541;-66
2023/12/27 11:28:23;;;;;;;6.13;5.55;;;8.20;99.90;;;;;;5056077;28;20651;-67
2023/12/27 11:30:49;;;;;;;6.37;5.80;;;8.20;99.90;;;;;;5073707;28;20217;-65
2023/12/27 11:33:21;;;;;;;5.97;5.43;;;8.20;99.90;;;;;;5074073;28;20184;-65
2023/12/27 11:35:47;;;;;;;6.50;5.63;;;8.20;99.90;;;;;;5073383;28;20178;-66
2023/12/27 11:38:15;;;;;;;5.87;5.30;;;8.30;99.90;;;;;;5073707;28;20538;-66
2023/12/27 11:40:43;;;;;;;6.07;5.50;;;8.20;99.90;;;;;;5073538;28;20197;-66
2023/12/27 11:43:09;;;;;;;6.00;5.50;;;8.30;99.90;;;;;;5073769;28;20697;-67
2023/12/27 11:46:03;;;;;;;5.80;5.30;;;8.20;99.90;;;;;;5073377;28;20181;-66
2023/12/27 11:48:35;;;;;;;6.47;5.57;;;8.30;99.90;;;;;;5073234;28;20182;-67
2023/12/27 11:51:02;;;;;;;6.43;5.70;;;8.20;99.90;;;;;;5073441;28;20194;-66
2023/12/27 11:53:29;;;;;;;8.03;6.00;;;8.20;99.90;;;;;;5073740;28;20592;-67
2023/12/27 11:56:01;;;;;;;5.83;5.40;;;8.30;99.90;;;;;;5073529;28;20220;-66
2023/12/27 11:58:35;;;;;;;7.60;6.28;;;8.30;99.90;;;;;;5073654;28;20182;-66
2023/12/27 12:01:20;;;;;;;5.73;5.13;;;8.30;99.90;;;;;;5055437;28;20209;-67
2023/12/27 12:04:00;;;;;;;6.73;6.10;;;8.30;99.90;;;;;;5073157;28;20296;-66
2023/12/27 12:07:17;;;;;;;5.83;5.23;;;8.30;99.90;;;;;;5073373;28;20221;-69
2023/12/27 12:09:45;;;;;;;6.77;5.70;;;8.40;99.90;;;;;;4992079;28;20267;-66
2023/12/27 12:12:19;;;;;;;5.87;5.37;;;8.40;99.90;;;;;;4992343;28;20189;-67
2023/12/27 12:14:45;;;;;;;5.57;5.07;;;8.40;99.90;;;;;;5032783;28;20186;-67
2023/12/27 12:17:13;;;;;;;5.53;5.10;;;8.50;99.90;;;;;;5073117;28;20173;-67
2023/12/27 12:19:39;;;;;;;7.30;5.83;;;8.50;99.90;;;;;;5072772;28;20682;-67
2023/12/27 12:22:05;;;;;;;5.20;4.80;;;8.50;99.90;;;;;;5055010;28;20186;-66
2023/12/27 12:24:34;;;;;;;5.50;5.07;;;8.50;99.90;;;;;;5055237;28;20208;-66
2023/12/27 12:27:01;;;;;;;5.73;5.17;;;8.50;99.90;;;;;;5073659;28;20650;-66
2023/12/27 12:29:27;;;;;;;5.20;4.80;;;8.60;99.90;;;;;;5072794;28;20217;-67
2023/12/27 12:31:54;;;;;;;7.00;4.90;;;8.60;99.90;;;;;;5054807;28;20188;-67
2023/12/27 12:34:21;;;;;;;5.30;4.90;;;8.60;99.90;;;;;;5072742;28;20273;-66
2023/12/27 12:36:47;;;;;;;6.33;4.43;;;8.60;99.90;;;;;;5055074;28;20200;-67
2023/12/27 12:39:16;;;;;;;4.70;4.40;;;8.60;99.90;;;;;;5072878;28;20177;-67
2023/12/27 12:41:43;;;;;;;5.20;4.37;;;8.60;99.90;;;;;;5072974;28;20174;-65